PWSweather.com
Personal Weather Stations
Station Observations
DW7240
Park & Bond, Oshawa, ON L1J 4K8

Park & BondOshawa, ON L1J 4K8

Lat: 43.89689, Lon: -78.87396

Elevation: 358

Station Type: DAVIS VANTAGE PRO2 inc FARS

http://dw7240.com

Latest ConditionsUpdated 8:30:00 PM EDT Monday, Oct 15, 2018
Currently Today's Max Today's Min Today's Average
Temperature 44.0°F6.7°C 56.2°F13.4°C 44.0°F6.7°C 50.6°F10.3°C
Dew Point 31.0°F-0.6°C 54.4°F12.4°C 31.0°F-0.6°C 46.6°F8.1°C
Winds 11.0 mph NW17.7 kmh NW 12.0 mph -19.3 kmh - - 2.7 mph 4.3 kmh
Wind Gusts 24.0 mph38.6 kmh 26.0 mph41.8 kmh - -
Humidity 60% 95% 60% 87%
Pressure 29.95 in1014.2 mb 30.05 in1017.6 mb 29.73 in1006.8 mb -
Precipitation - 0.06 in1.5 mm - -
Hour Temp Dew Point Humidity Winds Wind Gusts Pressure Precip Precip Rate Daily Precip Total
08:30 PM 44.0°F6.7°C 31.0°F-0.6°C 60% 11.0 mph NW17.7 kmh NW 24.0 mph38.6 kmh 29.95 in1014.2 mb 0.00 in0.0 mm 0.00 in0.0 mm 0.06 in1.5 mm
08:15 PM 44.6°F7.0°C 31.6°F-0.2°C 60% 10.0 mph NW16.1 kmh NW 24.0 mph38.6 kmh 29.94 in1013.9 mb 0.00 in0.0 mm 0.00 in0.0 mm 0.06 in1.5 mm
08:00 PM 45.4°F7.4°C 34.3°F1.3°C 65% 12.0 mph WNW19.3 kmh WNW 26.0 mph41.8 kmh 29.93 in1013.5 mb 0.00 in0.0 mm 0.00 in0.0 mm 0.06 in1.5 mm
07:45 PM 45.8°F7.7°C 37.3°F2.9°C 72% 11.0 mph NNW17.7 kmh NNW 22.0 mph35.4 kmh 29.92 in1013.2 mb 0.00 in0.0 mm 0.00 in0.0 mm 0.06 in1.5 mm
07:30 PM 45.9°F7.7°C 37.4°F3.0°C 72% 12.0 mph NW19.3 kmh NW 24.0 mph38.6 kmh 29.90 in1012.5 mb 0.00 in0.0 mm 0.00 in0.0 mm 0.06 in1.5 mm
07:15 PM 47.4°F8.6°C 37.7°F3.2°C 69% 10.0 mph NW16.1 kmh NW 20.0 mph32.2 kmh 29.89 in1012.2 mb 0.00 in0.0 mm 0.00 in0.0 mm 0.06 in1.5 mm
07:00 PM 47.4°F8.6°C 38.5°F3.6°C 71% 8.0 mph NW12.9 kmh NW 18.0 mph29.0 kmh 29.88 in1011.9 mb 0.00 in0.0 mm 0.00 in0.0 mm 0.06 in1.5 mm
06:45 PM 48.1°F8.9°C 39.1°F3.9°C 71% 10.0 mph NW16.1 kmh NW 21.0 mph33.8 kmh 29.87 in1011.5 mb 0.00 in0.0 mm 0.00 in0.0 mm 0.06 in1.5 mm
06:30 PM 48.9°F9.4°C 38.8°F3.8°C 68% 9.0 mph WNW14.5 kmh WNW 22.0 mph35.4 kmh 29.85 in1010.8 mb 0.00 in0.0 mm 0.00 in0.0 mm 0.06 in1.5 mm
06:15 PM 49.3°F9.6°C 39.2°F4.0°C 68% 11.0 mph WNW17.7 kmh WNW 22.0 mph35.4 kmh 29.84 in1010.5 mb 0.00 in0.0 mm 0.00 in0.0 mm 0.06 in1.5 mm
06:00 PM 49.9°F9.9°C 40.9°F4.9°C 71% 7.0 mph NW11.3 kmh NW 20.0 mph32.2 kmh 29.84 in1010.5 mb 0.00 in0.0 mm 0.00 in0.0 mm 0.06 in1.5 mm
05:45 PM 50.5°F10.3°C 41.8°F5.4°C 72% 9.0 mph NW14.5 kmh NW 21.0 mph33.8 kmh 29.83 in1010.2 mb 0.00 in0.0 mm 0.00 in0.0 mm 0.06 in1.5 mm
05:30 PM 51.8°F11.0°C 42.7°F5.9°C 71% 10.0 mph WNW16.1 kmh WNW 22.0 mph35.4 kmh 29.83 in1010.2 mb 0.00 in0.0 mm 0.00 in0.0 mm 0.06 in1.5 mm
05:15 PM 52.7°F11.5°C 43.9°F6.6°C 72% 8.0 mph NW12.9 kmh NW 19.0 mph30.6 kmh 29.81 in1009.5 mb 0.00 in0.0 mm 0.00 in0.0 mm 0.06 in1.5 mm
05:00 PM 53.2°F11.8°C 45.5°F7.5°C 75% 5.0 mph WNW8.0 kmh WNW 18.0 mph29.0 kmh 29.80 in1009.1 mb 0.00 in0.0 mm 0.00 in0.0 mm 0.06 in1.5 mm
04:45 PM 52.7°F11.5°C 46.0°F7.8°C 78% 5.0 mph NW8.0 kmh NW 20.0 mph32.2 kmh 29.79 in1008.8 mb 0.00 in0.0 mm 0.00 in0.0 mm 0.06 in1.5 mm
04:30 PM 54.6°F12.6°C 47.2°F8.4°C 76% 4.0 mph WNW6.4 kmh WNW 19.0 mph30.6 kmh 29.78 in1008.5 mb 0.00 in0.0 mm 0.00 in0.0 mm 0.06 in1.5 mm
04:15 PM 55.7°F13.2°C 47.2°F8.4°C 73% 5.0 mph WNW8.0 kmh WNW 14.0 mph22.5 kmh 29.77 in1008.1 mb 0.00 in0.0 mm 0.00 in0.0 mm 0.06 in1.5 mm
04:00 PM 56.0°F13.3°C 47.1°F8.4°C 72% 8.0 mph WNW12.9 kmh WNW 23.0 mph37.0 kmh 29.76 in1007.8 mb 0.00 in0.0 mm 0.00 in0.0 mm 0.06 in1.5 mm
03:45 PM 56.0°F13.3°C 48.2°F9.0°C 75% 6.0 mph WNW9.7 kmh WNW 18.0 mph29.0 kmh 29.76 in1007.8 mb 0.00 in0.0 mm 0.00 in0.0 mm 0.06 in1.5 mm
03:30 PM 55.6°F13.1°C 49.2°F9.6°C 79% 9.0 mph WNW14.5 kmh WNW 21.0 mph33.8 kmh 29.75 in1007.5 mb 0.00 in0.0 mm 0.00 in0.0 mm 0.06 in1.5 mm
03:15 PM 55.8°F13.2°C 50.7°F10.4°C 83% 7.0 mph WNW11.3 kmh WNW 17.0 mph27.4 kmh 29.75 in1007.5 mb 0.00 in0.0 mm 0.00 in0.0 mm 0.06 in1.5 mm
03:00 PM 56.2°F13.4°C 52.1°F11.2°C 86% 4.0 mph WNW6.4 kmh WNW 17.0 mph27.4 kmh 29.74 in1007.1 mb 0.00 in0.0 mm 0.00 in0.0 mm 0.06 in1.5 mm
02:45 PM 55.9°F13.3°C 53.0°F11.7°C 90% 2.0 mph W3.2 kmh W 10.0 mph16.1 kmh 29.73 in1006.8 mb 0.00 in0.0 mm 0.00 in0.0 mm 0.06 in1.5 mm
02:30 PM 55.2°F12.9°C 52.6°F11.4°C 91% 1.0 mph W1.6 kmh W 8.0 mph12.9 kmh 29.74 in1007.1 mb 0.00 in0.0 mm 0.00 in0.0 mm 0.06 in1.5 mm
02:15 PM 55.0°F12.8°C 52.4°F11.3°C 91% 1.0 mph W1.6 kmh W 8.0 mph12.9 kmh 29.74 in1007.1 mb 0.00 in0.0 mm 0.00 in0.0 mm 0.06 in1.5 mm
02:00 PM 54.5°F12.5°C 52.2°F11.2°C 92% 3.0 mph W4.8 kmh W 12.0 mph19.3 kmh 29.74 in1007.1 mb 0.00 in0.0 mm 0.00 in0.0 mm 0.06 in1.5 mm
01:45 PM 54.3°F12.4°C 52.3°F11.3°C 93% 2.0 mph WNW3.2 kmh WNW 11.0 mph17.7 kmh 29.75 in1007.5 mb 0.00 in0.0 mm 0.00 in0.0 mm 0.06 in1.5 mm
01:30 PM 54.3°F12.4°C 52.6°F11.4°C 94% 1.0 mph NW1.6 kmh NW 8.0 mph12.9 kmh 29.74 in1007.1 mb 0.00 in0.0 mm 0.00 in0.0 mm 0.06 in1.5 mm
01:15 PM 54.1°F12.3°C 52.4°F11.3°C 94% 4.0 mph WNW6.4 kmh WNW 14.0 mph22.5 kmh 29.76 in1007.8 mb 0.01 in0.3 mm 0.00 in0.0 mm 0.06 in1.5 mm
01:00 PM 54.3°F12.4°C 52.6°F11.4°C 94% 5.0 mph WNW8.0 kmh WNW 16.0 mph25.7 kmh 29.75 in1007.5 mb 0.01 in0.3 mm 0.00 in0.0 mm 0.06 in1.5 mm
12:45 PM 55.4°F13.0°C 54.0°F12.2°C 95% 4.0 mph W6.4 kmh W 16.0 mph25.7 kmh 29.75 in1007.5 mb 0.01 in0.3 mm 0.00 in0.0 mm 0.06 in1.5 mm
12:30 PM 55.3°F12.9°C 53.9°F12.2°C 95% 5.0 mph WSW8.0 kmh WSW 11.0 mph17.7 kmh 29.74 in1007.1 mb 0.02 in0.5 mm 0.00 in0.0 mm 0.06 in1.5 mm
12:15 PM 55.8°F13.2°C 54.4°F12.4°C 95% 3.0 mph SW4.8 kmh SW 11.0 mph17.7 kmh 29.75 in1007.5 mb 0.02 in0.5 mm 0.00 in0.0 mm 0.06 in1.5 mm
12:00 PM 55.0°F12.8°C 53.6°F12.0°C 95% 2.0 mph SW3.2 kmh SW 8.0 mph12.9 kmh 29.75 in1007.5 mb 0.02 in0.5 mm 0.00 in0.0 mm 0.06 in1.5 mm
11:45 AM 54.9°F12.7°C 53.5°F11.9°C 95% 2.0 mph SSW3.2 kmh SSW 8.0 mph12.9 kmh 29.76 in1007.8 mb 0.02 in0.5 mm 0.00 in0.0 mm 0.05 in1.3 mm
11:30 AM 54.1°F12.3°C 52.7°F11.5°C 95% Calm Calm 1.0 mph1.6 kmh 29.77 in1008.1 mb 0.02 in0.5 mm 0.00 in0.0 mm 0.05 in1.3 mm
11:15 AM 53.4°F11.9°C 52.0°F11.1°C 95% Calm Calm 5.0 mph8.0 kmh 29.77 in1008.1 mb 0.02 in0.5 mm 0.04 in1.0 mm 0.04 in1.0 mm
11:00 AM 53.5°F11.9°C 51.8°F11.0°C 94% Calm Calm 3.0 mph4.8 kmh 29.79 in1008.8 mb 0.01 in0.3 mm 0.00 in0.0 mm 0.03 in0.8 mm
10:45 AM 53.2°F11.8°C 51.8°F11.0°C 95% Calm Calm 4.0 mph6.4 kmh 29.79 in1008.8 mb 0.02 in0.5 mm 0.00 in0.0 mm 0.03 in0.8 mm
10:30 AM 52.4°F11.3°C 50.7°F10.4°C 94% Calm Calm -- 29.80 in1009.1 mb 0.02 in0.5 mm 0.00 in0.0 mm 0.03 in0.8 mm
10:15 AM 52.4°F11.3°C 50.7°F10.4°C 94% Calm Calm -- 29.81 in1009.5 mb 0.02 in0.5 mm 0.04 in1.0 mm 0.02 in0.5 mm
10:00 AM 52.0°F11.1°C 50.0°F10.0°C 93% Calm Calm -- 29.82 in1009.8 mb 0.01 in0.3 mm 0.01 in0.3 mm 0.02 in0.5 mm
09:45 AM 51.8°F11.0°C 49.8°F9.9°C 93% Calm Calm -- 29.83 in1010.2 mb 0.00 in0.0 mm 0.00 in0.0 mm 0.01 in0.3 mm
09:30 AM 51.4°F10.8°C 49.4°F9.7°C 93% Calm Calm -- 29.84 in1010.5 mb 0.00 in0.0 mm 0.00 in0.0 mm 0.01 in0.3 mm
09:15 AM 51.5°F10.8°C 49.5°F9.7°C 93% Calm Calm -- 29.84 in1010.5 mb 0.00 in0.0 mm 0.00 in0.0 mm 0.01 in0.3 mm
09:00 AM 51.1°F10.6°C 49.4°F9.7°C 94% Calm Calm -- 29.84 in1010.5 mb 0.00 in0.0 mm 0.00 in0.0 mm 0.01 in0.3 mm
08:45 AM 50.6°F10.3°C 48.9°F9.4°C 94% Calm Calm -- 29.85 in1010.8 mb 0.00 in0.0 mm 0.00 in0.0 mm 0.01 in0.3 mm
08:30 AM 50.2°F10.1°C 48.3°F9.1°C 93% Calm Calm -- 29.86 in1011.2 mb 0.00 in0.0 mm 0.00 in0.0 mm 0.01 in0.3 mm
08:15 AM 50.2°F10.1°C 48.3°F9.1°C 93% Calm Calm -- 29.86 in1011.2 mb 0.00 in0.0 mm 0.00 in0.0 mm 0.01 in0.3 mm
08:00 AM 50.0°F10.0°C 48.1°F8.9°C 93% Calm Calm -- 29.87 in1011.5 mb 0.01 in0.3 mm 0.00 in0.0 mm 0.01 in0.3 mm
07:45 AM 49.6°F9.8°C 47.7°F8.7°C 93% Calm Calm -- 29.87 in1011.5 mb 0.01 in0.3 mm 0.00 in0.0 mm 0.01 in0.3 mm
07:30 AM 49.6°F9.8°C 47.4°F8.6°C 92% Calm Calm -- 29.88 in1011.9 mb 0.01 in0.3 mm 0.00 in0.0 mm 0.01 in0.3 mm
07:15 AM 49.4°F9.7°C 47.2°F8.4°C 92% Calm Calm -- 29.87 in1011.5 mb 0.01 in0.3 mm 0.04 in1.0 mm 0.01 in0.3 mm
07:00 AM 49.3°F9.6°C 47.1°F8.4°C 92% Calm Calm -- 29.89 in1012.2 mb 0.00 in0.0 mm 0.00 in0.0 mm 0.00 in0.0 mm
06:45 AM 49.3°F9.6°C 47.1°F8.4°C 92% Calm Calm -- 29.90 in1012.5 mb 0.00 in0.0 mm 0.00 in0.0 mm 0.00 in0.0 mm
06:30 AM 49.1°F9.5°C 46.9°F8.3°C 92% Calm Calm -- 29.90 in1012.5 mb 0.00 in0.0 mm 0.00 in0.0 mm 0.00 in0.0 mm
06:15 AM 49.0°F9.4°C 46.5°F8.1°C 91% Calm Calm -- 29.90 in1012.5 mb 0.00 in0.0 mm 0.00 in0.0 mm 0.00 in0.0 mm
06:00 AM 49.1°F9.5°C 46.6°F8.1°C 91% Calm Calm -- 29.91 in1012.9 mb 0.00 in0.0 mm 0.00 in0.0 mm 0.00 in0.0 mm
05:45 AM 49.1°F9.5°C 46.6°F8.1°C 91% Calm Calm -- 29.91 in1012.9 mb 0.00 in0.0 mm 0.00 in0.0 mm 0.00 in0.0 mm
05:30 AM 49.0°F9.4°C 46.5°F8.1°C 91% Calm Calm -- 29.91 in1012.9 mb 0.00 in0.0 mm 0.00 in0.0 mm 0.00 in0.0 mm
05:15 AM 48.9°F9.4°C 46.4°F8.0°C 91% Calm Calm -- 29.92 in1013.2 mb 0.00 in0.0 mm 0.00 in0.0 mm 0.00 in0.0 mm
05:00 AM 48.9°F9.4°C 46.4°F8.0°C 91% Calm Calm -- 29.93 in1013.5 mb 0.00 in0.0 mm 0.00 in0.0 mm 0.00 in0.0 mm
04:45 AM 48.7°F9.3°C 46.2°F7.9°C 91% Calm Calm -- 29.94 in1013.9 mb 0.00 in0.0 mm 0.00 in0.0 mm 0.00 in0.0 mm
04:30 AM 48.5°F9.2°C 46.0°F7.8°C 91% Calm Calm -- 29.94 in1013.9 mb 0.00 in0.0 mm 0.00 in0.0 mm 0.00 in0.0 mm
04:15 AM 48.4°F9.1°C 45.9°F7.7°C 91% Calm Calm -- 29.96 in1014.6 mb 0.00 in0.0 mm 0.00 in0.0 mm 0.00 in0.0 mm
04:00 AM 48.3°F9.1°C 45.8°F7.7°C 91% Calm Calm -- 29.97 in1014.9 mb 0.00 in0.0 mm 0.00 in0.0 mm 0.00 in0.0 mm
03:45 AM 47.9°F8.8°C 45.4°F7.4°C 91% Calm Calm -- 29.97 in1014.9 mb 0.00 in0.0 mm 0.00 in0.0 mm 0.00 in0.0 mm
03:30 AM 47.7°F8.7°C 45.2°F7.3°C 91% Calm Calm -- 29.98 in1015.2 mb 0.00 in0.0 mm 0.00 in0.0 mm 0.00 in0.0 mm
03:15 AM 47.8°F8.8°C 45.3°F7.4°C 91% Calm Calm -- 29.99 in1015.6 mb 0.00 in0.0 mm 0.00 in0.0 mm 0.00 in0.0 mm
03:00 AM 47.8°F8.8°C 45.3°F7.4°C 91% Calm Calm -- 29.99 in1015.6 mb 0.00 in0.0 mm 0.00 in0.0 mm 0.00 in0.0 mm
02:45 AM 47.6°F8.7°C 45.1°F7.3°C 91% Calm Calm -- 30.00 in1015.9 mb 0.00 in0.0 mm 0.00 in0.0 mm 0.00 in0.0 mm
02:30 AM 47.6°F8.7°C 45.1°F7.3°C 91% Calm Calm -- 30.00 in1015.9 mb 0.00 in0.0 mm 0.00 in0.0 mm 0.00 in0.0 mm
02:15 AM 47.2°F8.4°C 44.7°F7.1°C 91% Calm Calm -- 30.00 in1015.9 mb 0.00 in0.0 mm 0.00 in0.0 mm 0.00 in0.0 mm
02:00 AM 47.3°F8.5°C 44.8°F7.1°C 91% Calm Calm -- 30.01 in1016.3 mb 0.00 in0.0 mm 0.00 in0.0 mm 0.00 in0.0 mm
01:45 AM 47.5°F8.6°C 45.0°F7.2°C 91% Calm Calm -- 30.01 in1016.3 mb 0.00 in0.0 mm 0.00 in0.0 mm 0.00 in0.0 mm
01:30 AM 47.4°F8.6°C 44.9°F7.2°C 91% Calm Calm -- 30.02 in1016.6 mb 0.00 in0.0 mm 0.00 in0.0 mm 0.00 in0.0 mm
01:15 AM 47.0°F8.3°C 44.8°F7.1°C 92% Calm Calm -- 30.02 in1016.6 mb 0.00 in0.0 mm 0.00 in0.0 mm 0.00 in0.0 mm
01:00 AM 46.6°F8.1°C 44.4°F6.9°C 92% Calm Calm -- 30.03 in1016.9 mb 0.00 in0.0 mm 0.00 in0.0 mm 0.00 in0.0 mm
12:45 AM 46.5°F8.1°C 44.3°F6.8°C 92% Calm Calm -- 30.03 in1016.9 mb 0.00 in0.0 mm 0.00 in0.0 mm 0.00 in0.0 mm
12:30 AM 46.1°F7.8°C 43.6°F6.4°C 91% Calm Calm -- 30.04 in1017.3 mb 0.00 in0.0 mm 0.00 in0.0 mm 0.00 in0.0 mm
12:15 AM 46.0°F7.8°C 43.5°F6.4°C 91% Calm Calm -- 30.04 in1017.3 mb 0.00 in0.0 mm 0.00 in0.0 mm 0.00 in0.0 mm
12:00 AM 46.0°F7.8°C 43.5°F6.4°C 91% Calm Calm -- 30.05 in1017.6 mb 0.00 in0.0 mm 0.00 in0.0 mm 0.00 in0.0 mm